createdAt,value
2019-03-17T00:00:32.511Z,17.00
2019-03-17T00:03:00.440Z,16.90
2019-03-17T00:05:28.435Z,17.30
2019-03-17T00:07:56.473Z,16.77
2019-03-17T00:10:24.445Z,17.17
2019-03-17T00:12:52.433Z,16.73
2019-03-17T00:15:20.491Z,16.30
2019-03-17T00:17:48.466Z,16.50
2019-03-17T00:20:16.529Z,16.80
2019-03-17T00:22:44.543Z,16.50
2019-03-17T00:25:12.472Z,17.00
2019-03-17T00:27:40.420Z,17.03
2019-03-17T00:30:08.661Z,16.10
2019-03-17T00:32:36.673Z,17.17
2019-03-17T00:35:04.805Z,16.43
2019-03-17T00:37:32.829Z,16.10
2019-03-17T00:40:00.800Z,17.13
2019-03-17T00:42:28.849Z,17.90
2019-03-17T00:44:56.879Z,18.13
2019-03-17T00:47:24.946Z,15.97
2019-03-17T00:49:53.082Z,17.17
2019-03-17T00:52:21.137Z,16.00
2019-03-17T00:54:49.165Z,17.67
2019-03-17T00:57:17.190Z,17.27
2019-03-17T00:59:45.234Z,16.23
2019-03-17T01:02:13.245Z,16.20
2019-03-17T01:04:41.277Z,16.30
2019-03-17T01:07:09.293Z,16.30
2019-03-17T01:09:37.177Z,17.33
2019-03-17T01:12:05.233Z,15.83
2019-03-17T01:14:33.273Z,16.80
2019-03-17T01:17:01.309Z,15.60
2019-03-17T01:19:29.235Z,15.03
2019-03-17T01:21:57.302Z,14.60
2019-03-17T01:24:25.391Z,15.73
2019-03-17T01:26:53.453Z,15.13
2019-03-17T01:29:21.536Z,15.83
2019-03-17T01:31:49.586Z,15.63
2019-03-17T01:34:17.669Z,15.97
2019-03-17T01:36:45.749Z,15.03
2019-03-17T01:39:13.708Z,16.43
2019-03-17T01:41:41.647Z,16.07
2019-03-17T01:44:09.616Z,15.97
2019-03-17T01:46:37.577Z,15.50
2019-03-17T01:49:06.611Z,14.90
2019-03-17T01:51:34.539Z,17.03
2019-03-17T01:54:02.513Z,17.50
2019-03-17T01:56:30.575Z,16.50
2019-03-17T01:58:58.573Z,17.53
2019-03-17T02:01:26.600Z,18.50
2019-03-17T02:03:54.596Z,16.07
2019-03-17T02:06:22.580Z,16.33
2019-03-17T02:08:50.577Z,15.53
2019-03-17T02:11:18.619Z,14.87
2019-03-17T02:13:46.904Z,15.70
2019-03-17T02:16:14.873Z,16.23
2019-03-17T02:18:42.931Z,16.57
2019-03-17T02:21:10.922Z,15.47
2019-03-17T02:23:38.982Z,16.03
2019-03-17T02:26:07.076Z,15.40
2019-03-17T02:28:35.135Z,17.13
2019-03-17T02:31:03.110Z,15.27
2019-03-17T02:33:31.182Z,14.37
2019-03-17T02:35:59.164Z,16.40
2019-03-17T02:38:27.212Z,17.67
2019-03-17T02:40:55.280Z,16.07
2019-03-17T02:43:23.361Z,15.57
2019-03-17T02:45:51.422Z,17.17
2019-03-17T02:48:19.509Z,17.13
2019-03-17T02:50:47.554Z,17.97
2019-03-17T02:53:15.544Z,16.43
2019-03-17T02:55:43.622Z,18.07
2019-03-17T02:58:11.675Z,16.20
2019-03-17T03:00:39.787Z,16.43
2019-03-17T03:03:07.899Z,15.60
2019-03-17T03:05:35.901Z,15.63
2019-03-17T03:08:04.269Z,15.30
2019-03-17T03:10:32.510Z,15.13
2019-03-17T03:13:00.826Z,13.10
2019-03-17T03:15:28.901Z,13.77
2019-03-17T03:17:56.985Z,14.10
2019-03-17T03:20:25.029Z,14.47
2019-03-17T03:22:53.017Z,14.23
2019-03-17T03:25:21.073Z,16.93
2019-03-17T03:27:49.167Z,17.00
2019-03-17T03:30:17.226Z,16.43
2019-03-17T03:32:45.310Z,14.83
2019-03-17T03:35:13.290Z,13.90
2019-03-17T03:37:41.332Z,14.83
2019-03-17T03:40:09.395Z,15.40
2019-03-17T03:42:37.569Z,15.43
2019-03-17T03:45:05.691Z,15.30
2019-03-17T03:47:33.761Z,15.00
2019-03-17T03:50:01.683Z,15.43
2019-03-17T03:52:29.668Z,15.50
2019-03-17T03:54:57.573Z,14.30
2019-03-17T03:57:25.660Z,14.40
2019-03-17T03:59:53.660Z,15.63
2019-03-17T04:02:21.680Z,14.17
2019-03-17T04:04:49.724Z,15.60
2019-03-17T04:07:17.773Z,14.73
2019-03-17T04:09:45.761Z,14.20
2019-03-17T04:12:13.819Z,14.43
2019-03-17T04:14:41.912Z,14.97
2019-03-17T04:17:09.980Z,14.30
2019-03-17T04:19:38.040Z,13.50
2019-03-17T04:22:06.108Z,12.90
2019-03-17T04:24:34.180Z,13.57
2019-03-17T04:27:02.159Z,15.60
2019-03-17T04:29:30.209Z,13.77
2019-03-17T04:31:58.211Z,12.97
2019-03-17T04:34:26.152Z,13.70
2019-03-17T04:36:54.245Z,13.53
2019-03-17T04:39:22.302Z,13.07
2019-03-17T04:41:50.351Z,12.70
2019-03-17T04:44:21.099Z,11.63
2019-03-17T04:46:48.041Z,11.37
2019-03-17T04:49:16.013Z,11.23
2019-03-17T04:51:43.964Z,13.10
2019-03-17T04:54:12.366Z,13.00
2019-03-17T04:56:40.430Z,12.53
2019-03-17T04:59:08.348Z,13.30
2019-03-17T05:01:36.445Z,13.27
2019-03-17T05:04:04.336Z,13.93
2019-03-17T05:06:32.329Z,13.50
2019-03-17T05:09:00.270Z,12.30
2019-03-17T05:11:28.240Z,13.00
2019-03-17T05:13:56.252Z,13.47
2019-03-17T05:16:24.279Z,13.03
2019-03-17T05:18:52.269Z,13.73
2019-03-17T05:21:20.267Z,14.50
2019-03-17T05:23:48.294Z,13.33
2019-03-17T05:26:16.337Z,14.50
2019-03-17T05:28:44.331Z,11.73
2019-03-17T05:31:12.335Z,12.10
2019-03-17T05:33:40.372Z,10.57
2019-03-17T05:36:08.362Z,11.93
2019-03-17T05:38:36.405Z,14.50
2019-03-17T05:41:04.420Z,14.30
2019-03-17T05:43:32.355Z,12.87
2019-03-17T05:46:00.351Z,12.33
2019-03-17T05:48:28.420Z,12.60
2019-03-17T05:50:56.453Z,12.00
2019-03-17T05:53:24.460Z,14.07
2019-03-17T05:55:52.462Z,14.03
2019-03-17T05:58:20.422Z,12.80
2019-03-17T06:00:48.674Z,12.93
2019-03-17T06:03:16.717Z,12.63
2019-03-17T06:05:44.694Z,12.60
2019-03-17T06:08:13.073Z,12.90
2019-03-17T06:10:41.132Z,11.97
2019-03-17T06:13:09.127Z,13.07
2019-03-17T06:15:37.190Z,14.70
2019-03-17T06:18:05.254Z,15.20
2019-03-17T06:20:33.220Z,15.53
2019-03-17T06:23:01.217Z,14.70
2019-03-17T06:25:29.316Z,13.53
2019-03-17T06:27:57.329Z,14.90
2019-03-17T06:30:25.308Z,14.57
2019-03-17T06:32:53.294Z,13.77
2019-03-17T06:35:21.342Z,14.40
2019-03-17T06:37:49.338Z,13.43
2019-03-17T06:40:17.385Z,13.60
2019-03-17T06:42:45.375Z,13.37
2019-03-17T06:45:13.440Z,14.37
2019-03-17T06:47:41.390Z,14.47
2019-03-17T06:50:09.865Z,14.17
2019-03-17T06:52:37.856Z,13.53
2019-03-17T06:55:06.228Z,17.97
2019-03-17T06:57:34.273Z,16.37
2019-03-17T07:00:02.278Z,16.03
2019-03-17T07:02:30.295Z,16.40
2019-03-17T07:04:58.314Z,17.80
2019-03-17T07:07:26.295Z,17.43
2019-03-17T07:09:54.362Z,17.13
2019-03-17T07:12:22.421Z,16.10
2019-03-17T07:14:50.507Z,18.33
2019-03-17T07:17:19.457Z,17.07
2019-03-17T07:19:47.443Z,17.60
2019-03-17T07:22:15.437Z,17.47
2019-03-17T07:24:43.516Z,17.30
2019-03-17T07:27:11.591Z,15.53
2019-03-17T07:29:39.526Z,15.57
2019-03-17T07:32:07.565Z,16.40
2019-03-17T07:34:35.557Z,15.23
2019-03-17T07:37:03.862Z,16.20
2019-03-17T07:39:31.842Z,16.80
2019-03-17T07:41:59.727Z,16.80
2019-03-17T07:44:27.724Z,16.07
2019-03-17T07:46:56.028Z,16.63
2019-03-17T07:49:24.051Z,16.17
2019-03-17T07:51:51.979Z,16.40
2019-03-17T07:54:20.070Z,16.23
2019-03-17T07:56:48.040Z,16.30
2019-03-17T07:59:16.066Z,14.83
2019-03-17T08:01:44.123Z,15.90
2019-03-17T08:04:12.149Z,15.90
2019-03-17T08:06:40.143Z,15.77
2019-03-17T08:09:08.310Z,15.27
2019-03-17T08:11:36.351Z,15.93
2019-03-17T08:14:04.540Z,15.40
2019-03-17T08:16:32.622Z,15.90
2019-03-17T08:19:01.181Z,15.03
2019-03-17T08:21:29.319Z,14.90
2019-03-17T08:23:57.306Z,14.60
2019-03-17T08:26:25.425Z,14.77
2019-03-17T08:28:53.473Z,14.33
2019-03-17T08:31:21.722Z,15.03
2019-03-17T08:33:49.737Z,15.70
2019-03-17T08:36:17.773Z,15.63
2019-03-17T08:38:45.822Z,14.73
2019-03-17T08:41:13.854Z,15.90
2019-03-17T08:43:53.694Z,16.77
2019-03-17T08:46:11.814Z,16.17
2019-03-17T08:48:39.953Z,15.20
2019-03-17T08:51:07.962Z,16.27
2019-03-17T08:53:36.028Z,15.93
2019-03-17T08:56:04.110Z,15.57
2019-03-17T08:58:32.317Z,17.10
2019-03-17T09:01:00.340Z,15.87
2019-03-17T09:03:28.348Z,16.50
2019-03-17T09:05:56.300Z,15.07
2019-03-17T09:08:34.413Z,15.70
2019-03-17T09:10:54.190Z,16.20
2019-03-17T09:13:22.276Z,13.57
2019-03-17T09:15:50.491Z,14.17
2019-03-17T09:18:18.646Z,15.83
2019-03-17T09:20:46.904Z,15.87
2019-03-17T09:23:15.149Z,13.97
2019-03-17T09:25:43.182Z,11.67
2019-03-17T09:28:11.189Z,12.40
2019-03-17T09:30:39.398Z,15.10
2019-03-17T09:33:07.282Z,14.17
2019-03-17T09:35:35.393Z,13.30
2019-03-17T09:38:03.354Z,13.00
2019-03-17T09:40:31.428Z,13.70
2019-03-17T09:42:59.678Z,13.87
2019-03-17T09:45:27.661Z,13.20
2019-03-17T09:47:55.741Z,12.70
2019-03-17T09:50:23.824Z,13.00
2019-03-17T09:52:51.908Z,12.00
2019-03-17T09:55:19.968Z,12.10
2019-03-17T09:57:47.874Z,11.60
2019-03-17T10:00:15.874Z,11.10
2019-03-17T10:02:43.903Z,11.27
2019-03-17T10:05:11.970Z,11.57
2019-03-17T10:07:39.998Z,12.27
2019-03-17T10:10:08.719Z,11.50
2019-03-17T10:12:36.738Z,11.20
2019-03-17T10:15:05.947Z,10.83
2019-03-17T10:17:34.169Z,12.50
2019-03-17T10:20:02.343Z,11.77
2019-03-17T10:22:30.402Z,11.20
2019-03-17T10:24:58.630Z,11.30
2019-03-17T10:27:26.615Z,11.93
2019-03-17T10:29:54.998Z,12.10
2019-03-17T10:32:23.139Z,12.17
2019-03-17T10:34:51.177Z,12.13
2019-03-17T10:37:19.215Z,12.87
2019-03-17T10:39:47.345Z,12.33
2019-03-17T10:42:15.812Z,12.20
2019-03-17T10:44:43.748Z,11.80
2019-03-17T10:47:11.799Z,11.17
2019-03-17T10:49:39.772Z,11.90
2019-03-17T10:52:07.725Z,10.90
2019-03-17T10:54:35.824Z,11.40
2019-03-17T10:57:03.884Z,11.73
2019-03-17T10:59:31.969Z,11.30
2019-03-17T11:02:00.038Z,11.60
2019-03-17T11:04:28.170Z,11.57
2019-03-17T11:06:56.154Z,11.77
2019-03-17T11:09:25.531Z,11.93
2019-03-17T11:11:53.769Z,11.90
2019-03-17T11:14:21.804Z,11.20
2019-03-17T11:16:49.854Z,11.67
2019-03-17T11:19:17.844Z,12.17
2019-03-17T11:21:45.927Z,10.90
2019-03-17T11:24:13.996Z,12.53
2019-03-17T11:26:41.958Z,12.60
2019-03-17T11:29:09.978Z,12.60
2019-03-17T11:31:37.996Z,10.87
2019-03-17T11:34:06.000Z,10.83
2019-03-17T11:36:34.048Z,11.83
2019-03-17T11:39:02.124Z,11.13
2019-03-17T11:41:30.375Z,10.90
2019-03-17T11:43:58.431Z,10.60
2019-03-17T11:46:26.456Z,10.80
2019-03-17T11:48:54.523Z,10.13
2019-03-17T11:51:22.586Z,10.23
2019-03-17T11:53:50.645Z,10.43
2019-03-17T11:56:18.657Z,11.07
2019-03-17T11:58:46.685Z,9.93
2019-03-17T12:01:14.686Z,10.80
2019-03-17T12:03:42.779Z,12.47
2019-03-17T12:06:11.054Z,9.13
2019-03-17T12:08:39.099Z,8.93
2019-03-17T12:11:07.182Z,9.00
2019-03-17T12:13:35.232Z,9.57
2019-03-17T12:16:03.291Z,10.43
2019-03-17T12:18:31.269Z,9.50
2019-03-17T12:20:59.337Z,9.87
2019-03-17T12:23:27.415Z,10.67
2019-03-17T12:25:55.513Z,10.37
2019-03-17T12:28:23.434Z,10.57
2019-03-17T12:30:51.498Z,9.90
2019-03-17T12:33:19.490Z,9.50
2019-03-17T12:35:47.473Z,9.37
2019-03-17T12:38:15.554Z,9.70
2019-03-17T12:40:43.630Z,10.17
2019-03-17T12:43:11.670Z,9.87
2019-03-17T12:45:39.625Z,9.83
2019-03-17T12:48:07.630Z,9.27
2019-03-17T12:50:35.688Z,10.00
2019-03-17T12:53:03.647Z,8.73
2019-03-17T12:55:31.737Z,9.40
2019-03-17T12:57:59.813Z,10.20
2019-03-17T13:00:28.160Z,9.20
2019-03-17T13:02:56.155Z,12.60
2019-03-17T13:05:24.170Z,11.03
2019-03-17T13:07:52.232Z,9.80
2019-03-17T13:10:20.249Z,10.47
2019-03-17T13:12:48.524Z,9.70
2019-03-17T13:15:16.485Z,10.60
2019-03-17T13:17:44.589Z,9.97
2019-03-17T13:20:13.363Z,9.60
2019-03-17T13:22:41.556Z,8.90
2019-03-17T13:25:09.653Z,9.83
2019-03-17T13:27:37.681Z,9.40
2019-03-17T13:30:06.581Z,9.30
2019-03-17T13:32:34.544Z,9.00
2019-03-17T13:35:02.606Z,9.30
2019-03-17T13:37:30.572Z,9.87
2019-03-17T13:39:58.963Z,8.97
2019-03-17T13:42:26.913Z,8.50
2019-03-17T13:44:54.995Z,9.10
2019-03-17T13:47:23.221Z,9.40
2019-03-17T13:49:51.220Z,9.37
2019-03-17T13:52:19.718Z,9.60
2019-03-17T13:54:47.666Z,9.60
2019-03-17T13:57:16.742Z,8.83
2019-03-17T13:59:44.741Z,9.03
2019-03-17T14:02:12.655Z,9.60
2019-03-17T14:04:40.732Z,9.50
2019-03-17T14:07:08.725Z,9.20
2019-03-17T14:09:37.046Z,8.93
2019-03-17T14:12:05.220Z,10.07
2019-03-17T14:14:33.221Z,9.70
2019-03-17T14:17:01.285Z,8.80
2019-03-17T14:19:29.345Z,9.40
2019-03-17T14:21:57.543Z,9.10
2019-03-17T14:24:25.576Z,8.80
2019-03-17T14:26:53.641Z,8.80
2019-03-17T14:29:21.814Z,10.47
2019-03-17T14:31:49.812Z,8.73
2019-03-17T14:34:18.022Z,8.33
2019-03-17T14:36:46.169Z,8.70
2019-03-17T14:39:14.294Z,9.23
2019-03-17T14:41:42.468Z,9.90
2019-03-17T14:44:10.480Z,8.90
2019-03-17T14:46:38.548Z,8.10
2019-03-17T14:49:06.588Z,8.23
2019-03-17T14:51:34.578Z,8.80
2019-03-17T14:54:02.645Z,8.57
2019-03-17T14:56:30.716Z,8.27
2019-03-17T14:58:58.770Z,8.33
2019-03-17T15:01:26.750Z,8.30
2019-03-17T15:03:54.758Z,8.43
2019-03-17T15:06:23.093Z,8.90
2019-03-17T15:08:51.181Z,7.90
2019-03-17T15:11:19.138Z,8.40
2019-03-17T15:13:47.400Z,8.40
2019-03-17T15:16:15.396Z,7.77
2019-03-17T15:18:43.466Z,8.40
2019-03-17T15:21:11.528Z,8.90
2019-03-17T15:23:39.496Z,8.97
2019-03-17T15:26:07.606Z,8.57
2019-03-17T15:28:35.639Z,8.00
2019-03-17T15:31:11.419Z,8.10
2019-03-17T15:33:34.362Z,8.77
2019-03-17T15:36:02.737Z,8.80
2019-03-17T15:38:30.812Z,8.63
2019-03-17T15:40:58.790Z,7.80
2019-03-17T15:43:26.835Z,8.40
2019-03-17T15:45:54.793Z,8.20
2019-03-17T15:48:22.776Z,8.30
2019-03-17T15:50:50.859Z,8.17
2019-03-17T15:53:18.917Z,8.30
2019-03-17T15:55:47.093Z,9.33
2019-03-17T15:58:15.408Z,8.23
2019-03-17T16:00:43.449Z,9.00
2019-03-17T16:03:11.407Z,9.00
2019-03-17T16:05:39.425Z,8.90
2019-03-17T16:08:07.447Z,9.77
2019-03-17T16:10:35.541Z,9.77
2019-03-17T16:13:03.582Z,8.13
2019-03-17T16:15:31.710Z,8.50
2019-03-17T16:17:59.734Z,8.90
2019-03-17T16:20:27.690Z,8.90
2019-03-17T16:22:55.668Z,8.57
2019-03-17T16:25:23.644Z,9.13
2019-03-17T16:27:51.725Z,8.37
2019-03-17T16:30:20.575Z,8.70
2019-03-17T16:32:48.574Z,8.30
2019-03-17T16:35:16.746Z,8.30
2019-03-17T16:37:45.314Z,8.60
2019-03-17T16:40:14.126Z,8.60
2019-03-17T16:42:42.683Z,8.53
2019-03-17T16:45:11.399Z,8.60
2019-03-17T16:47:39.610Z,8.20
2019-03-17T16:50:08.624Z,8.00
2019-03-17T16:52:36.743Z,8.63
2019-03-17T16:55:05.146Z,8.17
2019-03-17T16:57:33.334Z,8.70
2019-03-17T17:00:01.329Z,8.70
2019-03-17T17:02:29.354Z,10.67
2019-03-17T17:04:57.416Z,8.63
2019-03-17T17:07:25.350Z,8.63
2019-03-17T17:09:53.331Z,8.53
2019-03-17T17:12:21.583Z,8.00
2019-03-17T17:14:49.613Z,8.00
2019-03-17T17:17:17.544Z,9.07
2019-03-17T17:19:45.626Z,9.07
2019-03-17T17:22:13.676Z,8.20
2019-03-17T17:24:41.845Z,8.73
2019-03-17T17:27:09.874Z,8.00
2019-03-17T17:29:37.892Z,7.60
2019-03-17T17:32:05.991Z,8.00
2019-03-17T17:34:34.034Z,8.57
2019-03-17T17:37:02.033Z,8.50
2019-03-17T17:39:30.221Z,8.77
2019-03-17T17:42:08.389Z,7.70
2019-03-17T17:44:27.974Z,8.60
2019-03-17T17:46:58.144Z,9.00
2019-03-17T17:49:25.553Z,8.10
2019-03-17T17:51:53.705Z,8.00
2019-03-17T17:54:21.726Z,8.57
2019-03-17T17:56:49.771Z,7.77
2019-03-17T17:59:17.712Z,8.33
2019-03-17T18:01:46.208Z,8.83
2019-03-17T18:04:14.213Z,7.60
2019-03-17T18:06:42.241Z,9.10
2019-03-17T18:09:10.241Z,8.20
2019-03-17T18:11:38.274Z,8.00
2019-03-17T18:14:06.312Z,7.80
2019-03-17T18:16:34.274Z,8.00
2019-03-17T18:19:02.308Z,8.73
2019-03-17T18:21:30.406Z,8.10
2019-03-17T18:23:58.442Z,7.70
2019-03-17T18:26:26.459Z,8.60
2019-03-17T18:28:54.464Z,8.30
2019-03-17T18:31:22.507Z,8.23
2019-03-17T18:33:50.414Z,8.37
2019-03-17T18:36:18.503Z,7.70
2019-03-17T18:38:46.567Z,8.10
2019-03-17T18:41:14.556Z,8.30
2019-03-17T18:43:42.780Z,7.97
2019-03-17T18:46:10.891Z,8.13
2019-03-17T18:48:39.100Z,8.07
2019-03-17T18:51:07.108Z,8.30
2019-03-17T18:53:35.200Z,8.07
2019-03-17T18:56:03.339Z,8.40
2019-03-17T18:58:31.396Z,8.43
2019-03-17T19:00:59.417Z,9.03
2019-03-17T19:03:27.371Z,8.43
2019-03-17T19:05:55.430Z,9.40
2019-03-17T19:08:23.461Z,8.60
2019-03-17T19:10:51.513Z,8.47
2019-03-17T19:13:19.446Z,8.80
2019-03-17T19:15:47.455Z,9.20
2019-03-17T19:18:15.436Z,8.43
2019-03-17T19:20:43.467Z,8.70
2019-03-17T19:23:11.795Z,8.33
2019-03-17T19:25:39.704Z,8.63
2019-03-17T19:28:08.681Z,8.30
2019-03-17T19:30:36.776Z,8.47
2019-03-17T19:33:04.909Z,7.70
2019-03-17T19:35:33.074Z,8.73
2019-03-17T19:38:01.171Z,8.30
2019-03-17T19:40:29.619Z,8.23
2019-03-17T19:42:59.544Z,8.70
2019-03-17T19:45:27.482Z,8.10
2019-03-17T19:47:55.447Z,9.07
2019-03-17T19:50:23.508Z,9.40
2019-03-17T19:52:51.638Z,8.53
2019-03-17T19:55:19.829Z,8.80
2019-03-17T19:57:47.829Z,8.87
2019-03-17T20:00:16.084Z,8.57
2019-03-17T20:02:47.091Z,8.40
2019-03-17T20:05:14.477Z,8.20
2019-03-17T20:07:42.586Z,9.10
2019-03-17T20:10:11.679Z,8.40
2019-03-17T20:12:39.718Z,9.13
2019-03-17T20:15:07.719Z,8.60
2019-03-17T20:17:35.674Z,8.60
2019-03-17T20:20:04.073Z,8.53
2019-03-17T20:22:32.128Z,8.83
2019-03-17T20:25:00.122Z,8.20
2019-03-17T20:27:30.756Z,8.90
2019-03-17T20:29:57.887Z,8.80
2019-03-17T20:32:26.104Z,9.20
2019-03-17T20:34:54.381Z,8.87
2019-03-17T20:37:22.284Z,8.17
2019-03-17T20:39:50.249Z,9.60
2019-03-17T20:42:18.319Z,9.90
2019-03-17T20:44:46.305Z,8.63
2019-03-17T20:47:14.369Z,8.50
2019-03-17T20:49:42.364Z,8.60
2019-03-17T20:52:10.380Z,9.27
2019-03-17T20:54:38.469Z,8.90
2019-03-17T20:57:06.461Z,9.00
2019-03-17T20:59:34.898Z,9.10
2019-03-17T21:02:02.884Z,8.70
2019-03-17T21:04:30.860Z,8.50
2019-03-17T21:06:58.910Z,8.77
2019-03-17T21:09:26.895Z,8.60
2019-03-17T21:11:54.888Z,9.67
2019-03-17T21:14:22.816Z,9.27
2019-03-17T21:16:50.854Z,8.73
2019-03-17T21:19:18.897Z,8.63
2019-03-17T21:21:47.043Z,8.43
2019-03-17T21:24:15.305Z,9.30
2019-03-17T21:26:43.327Z,9.30
2019-03-17T21:29:11.383Z,9.87
2019-03-17T21:31:39.453Z,9.00
2019-03-17T21:34:07.508Z,9.30
2019-03-17T21:36:35.500Z,10.27
2019-03-17T21:39:04.357Z,9.30
2019-03-17T21:41:32.358Z,9.10
2019-03-17T21:44:00.422Z,8.60
2019-03-17T21:46:28.491Z,8.87
2019-03-17T21:48:56.480Z,9.50
2019-03-17T21:51:24.516Z,9.57
2019-03-17T21:53:52.501Z,8.77
2019-03-17T21:56:20.449Z,9.30
2019-03-17T21:58:48.461Z,10.10
2019-03-17T22:01:16.518Z,9.23
2019-03-17T22:03:44.586Z,9.00
2019-03-17T22:06:12.550Z,9.90
2019-03-17T22:08:40.637Z,9.80
2019-03-17T22:11:08.769Z,9.93
2019-03-17T22:13:37.786Z,10.00
2019-03-17T22:16:05.858Z,10.23
2019-03-17T22:18:33.935Z,9.10
2019-03-17T22:21:01.988Z,10.33
2019-03-17T22:23:30.285Z,9.70
2019-03-17T22:25:58.381Z,9.80
2019-03-17T22:28:26.426Z,9.63
2019-03-17T22:30:54.409Z,9.67
2019-03-17T22:33:22.366Z,9.83
2019-03-17T22:35:50.348Z,9.57
2019-03-17T22:38:18.399Z,10.10
2019-03-17T22:40:46.497Z,10.00
2019-03-17T22:43:14.529Z,9.73
2019-03-17T22:45:42.516Z,10.33
2019-03-17T22:48:10.597Z,11.60
2019-03-17T22:50:38.529Z,9.57
2019-03-17T22:53:06.557Z,10.43
2019-03-17T22:55:34.585Z,10.10
2019-03-17T22:58:02.663Z,9.50
2019-03-17T23:00:39.630Z,9.87
2019-03-17T23:03:07.621Z,9.97
2019-03-17T23:05:35.914Z,10.37
2019-03-17T23:08:04.087Z,10.80
2019-03-17T23:10:32.142Z,10.10
2019-03-17T23:13:00.221Z,9.97
2019-03-17T23:15:28.284Z,11.80
2019-03-17T23:17:56.255Z,10.90
2019-03-17T23:20:24.338Z,10.30
2019-03-17T23:22:52.435Z,10.00
2019-03-17T23:25:20.438Z,9.87
2019-03-17T23:27:48.481Z,10.60
2019-03-17T23:30:16.527Z,10.60
2019-03-17T23:32:44.626Z,21.87
2019-03-17T23:35:12.629Z,22.30
2019-03-17T23:37:40.646Z,13.83
2019-03-17T23:40:09.779Z,10.87
2019-03-17T23:42:37.987Z,10.13
2019-03-17T23:45:06.182Z,9.80
2019-03-17T23:47:34.124Z,9.10
2019-03-17T23:50:02.119Z,8.40
2019-03-17T23:52:30.176Z,7.87
2019-03-17T23:54:58.136Z,8.40
2019-03-17T23:57:26.228Z,6.43
2019-03-17T23:59:54.167Z,6.97
